createdAt,value
2022-11-06T00:04:07.232Z,63.43
2022-11-06T00:09:12.855Z,62.87
2022-11-06T00:14:16.262Z,57.10
2022-11-06T00:19:18.776Z,54.37
2022-11-06T00:24:21.180Z,51.47
2022-11-06T00:29:23.680Z,45.83
2022-11-06T00:34:26.071Z,73.63
2022-11-06T00:39:28.458Z,96.07
2022-11-06T00:44:30.845Z,80.43
2022-11-06T00:49:33.261Z,67.43
2022-11-06T00:54:35.655Z,58.87
2022-11-06T00:59:38.044Z,51.27
2022-11-06T01:04:40.497Z,91.87
2022-11-06T01:09:43.005Z,87.23
2022-11-06T01:14:45.750Z,70.03
2022-11-06T01:19:48.211Z,65.63
2022-11-06T01:24:50.657Z,53.20
2022-11-06T01:29:53.101Z,58.33
2022-11-06T01:34:55.499Z,74.57
2022-11-06T01:39:57.849Z,117.93
2022-11-06T01:45:26.094Z,96.70
2022-11-06T01:50:28.730Z,97.47
2022-11-06T01:55:37.008Z,100.17
2022-11-06T02:00:40.375Z,93.93
2022-11-06T02:05:42.910Z,116.63
2022-11-06T02:10:46.362Z,122.50
2022-11-06T02:15:55.409Z,112.37
2022-11-06T02:21:31.637Z,106.50
2022-11-06T02:26:56.628Z,82.90
2022-11-06T02:32:02.793Z,96.97
2022-11-06T02:37:12.113Z,87.93
2022-11-06T02:42:18.771Z,79.40
2022-11-06T02:47:23.548Z,82.30
2022-11-06T02:52:32.541Z,61.70
2022-11-06T02:57:38.673Z,63.37
2022-11-06T03:02:57.218Z,78.83
2022-11-06T03:08:14.159Z,47.07
2022-11-06T03:13:45.360Z,40.40
2022-11-06T03:19:01.898Z,47.90
2022-11-06T03:24:16.607Z,96.33
2022-11-06T03:29:26.902Z,48.03
2022-11-06T03:34:38.470Z,34.23
2022-11-06T03:39:46.673Z,68.23
2022-11-06T03:44:54.856Z,85.87
2022-11-06T03:50:13.772Z,36.30
2022-11-06T03:55:24.899Z,33.10
2022-11-06T04:00:27.308Z,136.37
2022-11-06T04:05:29.863Z,141.07
2022-11-06T04:10:52.441Z,20.73
2022-11-06T04:15:55.563Z,64.07
2022-11-06T04:21:22.574Z,26.27
2022-11-06T04:26:36.095Z,41.63
2022-11-06T04:31:55.602Z,30.93
2022-11-06T04:37:12.342Z,31.10
2022-11-06T04:42:37.366Z,29.37
2022-11-06T04:47:40.097Z,51.10
2022-11-06T04:52:43.560Z,27.73
2022-11-06T04:57:45.995Z,73.70
2022-11-06T05:02:48.395Z,48.83
2022-11-06T05:07:50.766Z,32.17
2022-11-06T05:12:53.206Z,26.50
2022-11-06T05:17:58.239Z,27.13
2022-11-06T05:23:01.093Z,35.23
2022-11-06T05:28:08.443Z,29.07
2022-11-06T05:33:10.805Z,31.07
2022-11-06T05:38:13.500Z,37.13
2022-11-06T05:43:16.270Z,47.90
2022-11-06T05:48:18.676Z,35.80
2022-11-06T05:53:21.067Z,39.63
2022-11-06T05:58:23.492Z,93.37
2022-11-06T06:03:26.773Z,55.10
2022-11-06T06:08:29.092Z,27.37
2022-11-06T06:13:31.514Z,28.53
2022-11-06T06:18:33.910Z,28.73
2022-11-06T06:23:36.401Z,27.50
2022-11-06T06:28:39.160Z,26.37
2022-11-06T06:33:41.571Z,42.00
2022-11-06T06:38:43.938Z,35.27
2022-11-06T06:43:49.523Z,33.97
2022-11-06T06:48:51.894Z,28.60
2022-11-06T06:53:54.244Z,31.07
2022-11-06T06:58:56.686Z,43.30
2022-11-06T07:04:04.015Z,44.80
2022-11-06T07:09:07.205Z,62.77
2022-11-06T07:14:10.992Z,103.33
2022-11-06T07:19:13.443Z,35.87
2022-11-06T07:24:18.142Z,30.87
2022-11-06T07:29:20.718Z,50.43
2022-11-06T07:34:23.144Z,33.40
2022-11-06T07:39:25.532Z,36.57
2022-11-06T07:44:27.936Z,31.07
2022-11-06T07:49:30.402Z,30.20
2022-11-06T07:54:32.733Z,51.80
2022-11-06T07:59:35.163Z,33.63
2022-11-06T08:04:37.593Z,38.33
2022-11-06T08:09:39.973Z,34.40
2022-11-06T08:14:42.454Z,29.37
2022-11-06T08:19:44.980Z,29.07
2022-11-06T08:24:47.398Z,32.53
2022-11-06T08:29:49.888Z,50.17
2022-11-06T08:34:52.256Z,52.63
2022-11-06T08:39:54.691Z,28.47
2022-11-06T08:44:57.055Z,23.47
2022-11-06T08:49:59.400Z,38.47
2022-11-06T08:55:01.988Z,25.13
2022-11-06T09:00:05.136Z,19.13
2022-11-06T09:05:07.792Z,37.27
2022-11-06T09:10:10.270Z,22.33
2022-11-06T09:15:12.739Z,22.07
2022-11-06T09:20:18.168Z,17.77
2022-11-06T09:25:21.861Z,19.03
2022-11-06T09:30:25.903Z,23.17
2022-11-06T09:35:32.162Z,20.03
2022-11-06T09:40:38.243Z,19.97
2022-11-06T09:45:41.238Z,23.67
2022-11-06T09:51:00.132Z,16.63
2022-11-06T09:56:06.506Z,15.57
2022-11-06T10:01:24.542Z,15.07
2022-11-06T10:06:29.602Z,22.43
2022-11-06T10:11:49.632Z,170.33
2022-11-06T10:17:05.190Z,15.87
2022-11-06T10:22:07.571Z,17.47
2022-11-06T10:27:28.204Z,22.63
2022-11-06T10:32:49.689Z,20.83
2022-11-06T10:38:01.065Z,21.23
2022-11-06T10:43:06.446Z,16.37
2022-11-06T10:48:32.479Z,18.27
2022-11-06T10:53:53.657Z,21.53
2022-11-06T10:58:56.135Z,92.13
2022-11-06T11:03:58.659Z,31.43
2022-11-06T11:09:02.034Z,12.60
2022-11-06T11:14:04.559Z,12.43
2022-11-06T11:19:27.418Z,17.87
2022-11-06T11:24:29.898Z,11.53
2022-11-06T11:29:45.293Z,11.60
2022-11-06T11:34:56.791Z,13.27
2022-11-06T11:40:32.562Z,8.37
2022-11-06T11:45:35.062Z,13.43
2022-11-06T11:50:37.513Z,35.63
2022-11-06T11:55:44.677Z,19.53
2022-11-06T12:00:54.666Z,11.50
2022-11-06T12:06:06.711Z,14.73
2022-11-06T12:11:20.001Z,14.93
2022-11-06T12:16:22.476Z,15.53
2022-11-06T12:21:29.246Z,24.63
2022-11-06T12:26:52.074Z,19.07
2022-11-06T12:32:20.916Z,9.40
2022-11-06T12:38:05.923Z,9.93
2022-11-06T12:43:20.627Z,14.43
2022-11-06T12:48:52.658Z,16.57
2022-11-06T12:54:24.857Z,13.20
2022-11-06T13:00:00.326Z,16.17
2022-11-06T13:05:15.449Z,18.00
2022-11-06T13:10:39.376Z,8.37
2022-11-06T13:16:08.616Z,8.90
2022-11-06T13:21:29.321Z,8.40
2022-11-06T13:26:47.620Z,12.30
2022-11-06T13:31:59.012Z,12.87
2022-11-06T13:37:02.805Z,12.40
2022-11-06T13:42:07.991Z,15.97
2022-11-06T13:47:22.189Z,11.00
2022-11-06T13:52:37.783Z,7.03
2022-11-06T13:58:04.630Z,8.50
2022-11-06T14:03:25.047Z,8.80
2022-11-06T14:08:35.567Z,14.47
2022-11-06T14:13:38.765Z,12.40
2022-11-06T14:18:41.983Z,17.40
2022-11-06T14:23:52.673Z,15.17
2022-11-06T14:28:55.104Z,48.47
2022-11-06T14:33:59.478Z,32.40
2022-11-06T14:39:04.080Z,42.90
2022-11-06T14:44:18.365Z,49.03
2022-11-06T14:49:35.615Z,35.17
2022-11-06T14:54:41.090Z,22.23
2022-11-06T14:59:43.910Z,21.67
2022-11-06T15:05:01.462Z,22.37
2022-11-06T15:10:04.490Z,23.87
2022-11-06T15:15:17.462Z,15.50
2022-11-06T15:20:23.231Z,22.80
2022-11-06T15:25:28.075Z,33.50
2022-11-06T15:30:37.828Z,42.67
2022-11-06T15:35:41.143Z,47.77
2022-11-06T15:40:44.793Z,31.87
2022-11-06T15:45:47.170Z,27.17
2022-11-06T15:50:49.573Z,62.43
2022-11-06T15:56:07.252Z,39.93
2022-11-06T16:01:11.447Z,50.47
2022-11-06T16:06:14.074Z,47.77
2022-11-06T16:11:19.549Z,52.23
2022-11-06T16:16:33.905Z,49.90
2022-11-06T16:21:37.085Z,50.77
2022-11-06T16:26:44.629Z,51.40
2022-11-06T16:31:48.441Z,48.97
2022-11-06T16:37:03.700Z,43.27
2022-11-06T16:42:17.699Z,41.43
2022-11-06T16:47:22.752Z,48.17
2022-11-06T16:52:39.185Z,37.27
2022-11-06T16:57:57.508Z,30.40
2022-11-06T17:03:04.118Z,165.87
2022-11-06T17:08:28.613Z,198.87
2022-11-06T17:13:34.116Z,77.90
2022-11-06T17:18:38.396Z,52.33
2022-11-06T17:23:41.302Z,38.70
2022-11-06T17:28:43.842Z,44.17
2022-11-06T17:33:46.769Z,31.93
2022-11-06T17:38:49.500Z,38.07
2022-11-06T17:43:52.470Z,69.57
2022-11-06T17:48:55.547Z,58.83
2022-11-06T17:53:59.021Z,42.50
2022-11-06T17:59:01.448Z,49.87
2022-11-06T18:04:04.100Z,53.33
2022-11-06T18:09:08.059Z,78.67
2022-11-06T18:14:11.535Z,52.67
2022-11-06T18:19:16.761Z,51.80
2022-11-06T18:24:19.202Z,42.40
2022-11-06T18:29:21.661Z,39.03
2022-11-06T18:34:24.133Z,47.83
2022-11-06T18:39:26.609Z,41.80
2022-11-06T18:44:29.911Z,48.43
2022-11-06T18:49:32.345Z,50.37
2022-11-06T18:54:34.854Z,54.70
2022-11-06T18:59:37.260Z,54.00
2022-11-06T19:04:39.816Z,59.60
2022-11-06T19:09:42.344Z,46.33
2022-11-06T19:14:44.761Z,47.37
2022-11-06T19:19:47.733Z,40.33
2022-11-06T19:24:50.135Z,64.67
2022-11-06T19:29:52.718Z,49.57
2022-11-06T19:34:55.053Z,51.17
2022-11-06T19:40:01.439Z,47.40
2022-11-06T19:45:08.913Z,43.47
2022-11-06T19:50:11.337Z,47.57
2022-11-06T19:55:25.024Z,41.67
2022-11-06T20:00:30.027Z,39.37
2022-11-06T20:05:32.703Z,49.07
2022-11-06T20:10:35.739Z,48.13
2022-11-06T20:15:38.208Z,49.10
2022-11-06T20:20:40.608Z,48.20
2022-11-06T20:25:42.967Z,50.27
2022-11-06T20:30:45.335Z,43.57
2022-11-06T20:35:47.828Z,46.37
2022-11-06T20:40:54.995Z,45.90
2022-11-06T20:46:01.764Z,44.30
2022-11-06T20:51:07.323Z,43.53
2022-11-06T20:56:11.788Z,36.50
2022-11-06T21:01:19.880Z,42.97
2022-11-06T21:06:24.355Z,51.60
2022-11-06T21:11:28.177Z,42.07
2022-11-06T21:16:36.275Z,45.33
2022-11-06T21:21:38.919Z,145.33
2022-11-06T21:26:41.710Z,75.03
2022-11-06T21:31:49.059Z,65.83
2022-11-06T21:36:52.141Z,113.10
2022-11-06T21:41:54.564Z,122.73
2022-11-06T21:46:57.167Z,128.90
2022-11-06T21:52:19.539Z,103.17
2022-11-06T21:57:23.169Z,73.77
2022-11-06T22:02:25.683Z,81.13
2022-11-06T22:07:28.133Z,91.23
2022-11-06T22:12:30.493Z,99.53
2022-11-06T22:17:33.085Z,98.73
2022-11-06T22:22:35.474Z,117.60
2022-11-06T22:27:40.850Z,104.57
2022-11-06T22:32:43.586Z,133.07
2022-11-06T22:37:45.971Z,89.33
2022-11-06T22:42:50.008Z,90.23
2022-11-06T22:47:54.351Z,77.67
2022-11-06T22:52:56.695Z,58.83
2022-11-06T22:57:59.310Z,60.20
2022-11-06T23:03:02.102Z,41.93
2022-11-06T23:08:04.764Z,43.73
2022-11-06T23:13:07.137Z,46.83
2022-11-06T23:18:09.667Z,38.53
2022-11-06T23:23:12.119Z,43.60
2022-11-06T23:28:14.622Z,37.57
2022-11-06T23:33:17.304Z,36.80
2022-11-06T23:38:19.783Z,39.23
2022-11-06T23:43:22.153Z,41.57
2022-11-06T23:48:24.763Z,38.60
2022-11-06T23:53:27.100Z,32.33
2022-11-06T23:58:29.492Z,38.60
